createdAt,value
2022-12-09T16:40:00.618Z,100774.63
2022-12-09T16:42:36.503Z,100776.31
2022-12-09T16:45:31.425Z,100777.88
2022-12-09T16:48:06.034Z,100774.03
2022-12-09T16:50:40.528Z,100776.84
2022-12-09T16:53:18.934Z,100780.44
2022-12-09T16:55:55.812Z,100780.63
2022-12-09T16:58:24.908Z,100790.50
2022-12-09T17:00:54.014Z,100789.66
2022-12-09T17:03:34.173Z,100787.75
2022-12-09T17:06:03.000Z,100794.72
2022-12-09T17:08:31.852Z,100797.34
2022-12-09T17:11:02.731Z,100795.56
2022-12-09T17:13:31.492Z,100795.78
2022-12-09T17:16:01.151Z,100804.69
2022-12-09T17:18:30.804Z,100802.66
2022-12-09T17:21:04.034Z,100805.56
2022-12-09T17:23:39.197Z,100801.16
2022-12-09T17:26:14.148Z,100809.34
2022-12-09T17:28:44.794Z,100805.31
2022-12-09T17:31:16.391Z,100813.00
2022-12-09T17:33:45.346Z,100805.88
2022-12-09T17:36:22.564Z,100809.44
2022-12-09T17:38:55.409Z,100814.72
2022-12-09T17:41:26.095Z,100812.34
2022-12-09T17:44:01.186Z,100819.88
2022-12-09T17:46:30.138Z,100824.38
2022-12-09T17:49:06.990Z,100819.00
2022-12-09T17:51:36.675Z,100820.34
2022-12-09T17:54:14.189Z,100831.06
2022-12-09T17:56:46.127Z,100828.34
2022-12-09T17:59:16.895Z,100817.75
2022-12-09T18:01:54.297Z,100828.44
2022-12-09T18:04:23.243Z,100830.47
2022-12-09T18:06:51.957Z,100828.06
2022-12-09T18:09:26.068Z,100830.88
2022-12-09T18:11:56.882Z,100832.38
2022-12-09T18:14:49.359Z,100830.22
2022-12-09T18:17:33.373Z,100832.56
2022-12-09T18:20:57.454Z,100823.34
2022-12-09T18:23:29.852Z,100828.78
2022-12-09T18:26:08.351Z,100836.03
2022-12-09T18:28:47.647Z,100828.78
2022-12-09T18:31:23.929Z,100832.28
2022-12-09T18:33:56.419Z,100836.13
2022-12-09T18:36:28.264Z,100839.94
2022-12-09T18:38:57.286Z,100846.22
2022-12-09T18:41:28.612Z,100843.41
2022-12-09T18:44:04.084Z,100844.63
2022-12-09T18:46:35.807Z,100843.19
2022-12-09T18:49:07.122Z,100848.44
2022-12-09T18:51:36.221Z,100852.34
2022-12-09T18:54:59.682Z,100843.72
2022-12-09T18:57:03.277Z,100844.34
2022-12-09T18:59:34.256Z,100845.66
2022-12-09T19:02:03.086Z,100847.59
2022-12-09T19:04:32.103Z,100844.28
2022-12-09T19:07:01.893Z,100843.38
2022-12-09T19:09:34.132Z,100837.47
2022-12-09T19:12:30.039Z,100837.03
2022-12-09T19:14:55.380Z,100844.63
2022-12-09T19:17:24.185Z,100848.81
2022-12-09T19:19:52.943Z,100851.34
2022-12-09T19:22:22.015Z,100848.81
2022-12-09T19:24:50.767Z,100856.19
2022-12-09T19:27:19.470Z,100856.09
2022-12-09T19:29:48.238Z,100852.72
2022-12-09T19:32:51.373Z,100857.13
2022-12-09T19:35:08.854Z,100858.91
2022-12-09T19:37:37.654Z,100857.97
2022-12-09T19:40:08.904Z,100858.13
2022-12-09T19:42:39.135Z,100865.06
2022-12-09T19:45:13.908Z,100861.63
2022-12-09T19:47:45.892Z,100862.44
2022-12-09T19:50:14.687Z,100864.34
2022-12-09T19:52:43.697Z,100875.06
2022-12-09T20:11:35.027Z,100871.66
2022-12-09T20:14:06.301Z,100875.63
2022-12-09T20:16:35.579Z,100870.53
2022-12-09T20:19:05.019Z,100877.97
2022-12-09T20:21:34.698Z,100868.78
2022-12-09T20:24:04.492Z,100870.81
2022-12-09T20:26:41.900Z,100878.84
2022-12-09T20:29:12.460Z,100883.00
2022-12-09T20:31:44.584Z,100885.88
2022-12-09T20:34:17.427Z,100886.56
2022-12-09T20:36:51.911Z,100888.16
2022-12-09T20:39:22.474Z,100887.91
2022-12-09T20:41:55.142Z,100888.47
2022-12-09T20:44:23.843Z,100885.78
2022-12-09T20:47:00.405Z,100879.16
2022-12-09T20:49:29.672Z,100877.03
2022-12-09T20:51:58.668Z,100880.56
2022-12-09T20:54:27.545Z,100878.72
2022-12-09T20:56:58.291Z,100882.75
2022-12-09T20:59:27.084Z,100884.63
2022-12-09T21:01:56.062Z,100884.06
2022-12-09T21:04:25.316Z,100891.72
2022-12-09T21:06:54.326Z,100892.38
2022-12-09T21:09:26.443Z,100888.22
2022-12-09T21:11:57.384Z,100892.81
2022-12-09T21:14:32.840Z,100884.09
2022-12-09T21:17:02.348Z,100883.72
2022-12-09T21:19:33.877Z,100884.66
2022-12-09T21:22:03.482Z,100886.34
2022-12-09T21:24:32.524Z,100874.91
2022-12-09T21:27:03.260Z,100878.66
2022-12-09T21:29:32.605Z,100880.16
2022-12-09T21:32:02.466Z,100878.66
2022-12-09T21:34:31.471Z,100884.84
2022-12-09T21:37:00.715Z,100880.94
2022-12-09T21:39:29.951Z,100878.13
2022-12-09T21:41:59.032Z,100881.47
2022-12-09T21:44:30.103Z,100891.06
2022-12-09T21:47:00.905Z,100891.81
2022-12-09T21:49:32.748Z,100893.69
2022-12-09T21:52:05.751Z,100888.44
2022-12-09T21:54:34.751Z,100894.53
2022-12-09T21:57:09.682Z,100883.47
2022-12-09T21:59:44.146Z,100902.16
2022-12-09T22:02:14.801Z,100909.56
2022-12-09T22:04:48.925Z,100908.75
2022-12-09T22:07:22.749Z,100901.78
2022-12-09T22:09:52.264Z,100915.31
2022-12-09T22:12:24.945Z,100912.31
2022-12-09T22:14:57.872Z,100920.19
2022-12-09T22:17:30.769Z,100925.22
2022-12-09T22:20:33.211Z,100920.75
2022-12-09T22:22:48.472Z,100921.31
2022-12-09T22:25:17.427Z,100915.31
2022-12-09T22:27:46.251Z,100916.06
2022-12-09T22:30:17.529Z,100921.31
2022-12-09T22:32:50.913Z,100923.38
2022-12-09T22:35:27.511Z,100938.56
2022-12-09T22:37:59.136Z,100938.56
2022-12-09T22:40:27.882Z,100940.03
2022-12-09T22:42:56.939Z,100934.03
2022-12-09T22:45:27.624Z,100939.31
2022-12-09T22:47:56.687Z,100940.16
2022-12-09T22:50:25.742Z,100942.19
2022-12-09T22:52:54.469Z,100940.63
2022-12-09T22:55:23.247Z,100944.06
2022-12-09T22:57:53.109Z,100932.31
2022-12-09T23:00:26.312Z,100936.84
2022-12-09T23:02:57.324Z,100935.69
2022-12-09T23:05:29.134Z,100936.06
2022-12-09T23:08:02.088Z,100933.44
2022-12-09T23:10:30.910Z,100939.25
2022-12-09T23:12:59.984Z,100933.00
2022-12-09T23:15:28.819Z,100933.00
2022-12-09T23:17:59.448Z,100930.38
2022-12-09T23:20:28.827Z,100930.09
2022-12-09T23:22:57.686Z,100933.06
2022-12-09T23:25:26.567Z,100933.84
2022-12-09T23:27:55.291Z,100929.53
2022-12-09T23:30:24.123Z,100928.75
2022-12-09T23:32:52.813Z,100931.75
2022-12-09T23:35:23.433Z,100922.34
2022-12-09T23:37:52.162Z,100921.75
2022-12-09T23:40:20.911Z,100924.88
2022-12-09T23:42:53.571Z,100919.13
2022-12-09T23:45:22.304Z,100922.34
2022-12-09T23:47:50.965Z,100912.03
2022-12-09T23:50:20.064Z,100922.53
2022-12-09T23:52:52.861Z,100914.66
2022-12-09T23:55:21.517Z,100912.19
2022-12-09T23:57:50.211Z,100916.28
